• Join FlightAware (Why Join?)
  • Login
  • US Flag 
04:30AM EST


 

Airport Tracker/Info


-or-


 

Live Flight TrackerFlight Track Log ✈ MTN7305 ✈ 19-Sep-2013 ✈ KBWI - KEWR

Flight Track Log - Related Links

Times and Time Zones

All times are in EDT time to prevent confusion due to time zone crossing. See the MTN7305 flight status page for this flight to view local times or setup timezone preferences in your user account.

Time Position Orientation Groundspeed Altitude Reporting Facility
EDT Latitude Longitude Course Direction KTS MPH feet Rate Location/Type
11:04PM 39.2000 -76.7000 322° Northwest 108 124 1,100  Level Potomac TRACON
11:05PM 39.2167 -76.7167 322° Northwest 123 142 1,500 600 Climbing Potomac TRACON
11:06PM 39.2500 -76.6833 38° Northeast 132 152 2,300 660 Climbing Potomac TRACON
11:07PM 39.2667 -76.6500 57° Northeast 127 146 2,900 300 Climbing Potomac TRACON
11:08PM 39.3000 -76.6000 49° Northeast 150 173 2,900  Level Potomac TRACON
11:09PM 39.3167 -76.5667 57° Northeast 158 182 2,900 120 Level Potomac TRACON
11:10PM 39.3500 -76.5167 49° Northeast 156 180 3,200 480 Climbing Potomac TRACON
11:11PM 39.3833 -76.4833 38° Northeast 127 146 3,900 600 Climbing Potomac TRACON
11:12PM 39.4000 -76.4500 57° Northeast 127 146 4,400 480 Climbing Potomac TRACON
11:13PM 39.4167 -76.4167 57° Northeast 128 147 4,900 240 Climbing Potomac TRACON
11:14PM 39.4500 -76.3833 38° Northeast 147 169 4,900  Level Potomac TRACON
11:15PM 39.4667 -76.3500 57° Northeast 147 169 4,900  Level Potomac TRACON
11:16PM 39.5167 -76.2667 52° Northeast 147 169 5,000  Climbing Philadelphia TRACON
11:17PM 39.5500 -76.2333 38° Northeast 149 171 5,000  Level Philadelphia TRACON
11:18PM 39.5833 -76.1833 49° Northeast 155 178 5,000  Level Philadelphia TRACON
11:19PM 39.6000 -76.1333 67° East 155 178 5,100  Climbing Philadelphia TRACON
11:20PM 39.6333 -76.1000 38° Northeast 157 181 5,000 -60 Descending Philadelphia TRACON
11:21PM 39.6667 -76.0667 38° Northeast 156 180 5,000  Level Philadelphia TRACON
11:22PM 39.6833 -76.0167 67° East 156 180 5,000  Level Philadelphia TRACON
11:23PM 39.7167 -75.9667 49° Northeast 158 182 5,000  Level Philadelphia TRACON
11:24PM 39.7500 -75.9333 38° Northeast 157 181 5,000  Level Philadelphia TRACON
11:25PM 39.7833 -75.8833 49° Northeast 158 182 5,000  Level Philadelphia TRACON
11:26PM 39.8000 -75.8500 57° Northeast 158 182 5,000  Level Philadelphia TRACON
11:27PM 39.8333 -75.8000 49° Northeast 160 184 5,000  Level Philadelphia TRACON
11:28PM 39.8667 -75.7500 49° Northeast 159 183 5,000  Level Philadelphia TRACON
11:29PM 39.8833 -75.7167 57° Northeast 160 184 5,000  Level Philadelphia TRACON
11:30PM 39.9167 -75.6667 49° Northeast 159 183 5,000  Level Philadelphia TRACON
11:31PM 39.9500 -75.6167 49° Northeast 159 183 5,000  Level Philadelphia TRACON
11:32PM 39.9667 -75.5667 66° East 161 185 5,000  Level Philadelphia TRACON
11:33PM 39.9833 -75.5167 66° East 161 185 5,000  Level Philadelphia TRACON
11:34PM 40.0167 -75.4667 49° Northeast 159 183 5,000  Level Philadelphia TRACON
11:35PM 40.0333 -75.4167 66° East 160 184 5,000  Level Philadelphia TRACON
11:36PM 40.0500 -75.3667 66° East 159 183 5,000  Level Philadelphia TRACON
11:38PM 40.0833 -75.3167 49° Northeast 157 181 5,000  Level Philadelphia TRACON
11:39PM 40.1000 -75.2667 66° East 158 182 5,000  Level Philadelphia TRACON
11:40PM 40.1167 -75.2167 66° East 158 182 5,000  Level Philadelphia TRACON
11:41PM 40.1333 -75.1667 66° East 156 180 5,000  Level Philadelphia TRACON
11:42PM 40.1667 -75.1167 49° Northeast 156 180 5,000  Level Philadelphia TRACON
11:43PM 40.1833 -75.0667 66° East 156 180 5,100  Climbing Philadelphia TRACON
11:44PM 40.2167 -75.0167 49° Northeast 156 180 5,100  Level New York TRACON
11:45PM 40.2333 -74.9500 72° East 157 181 5,100  Level New York TRACON
11:46PM 40.2500 -74.9167 57° Northeast 157 181 5,100  Level New York TRACON
11:47PM 40.2833 -74.8667 49° Northeast 157 181 5,100  Level New York TRACON
11:48PM 40.3167 -74.8167 49° Northeast 157 181 5,100  Level New York TRACON
11:49PM 40.3500 -74.7833 37° Northeast 154 177 5,100  Level New York TRACON
11:50PM 40.3833 -74.7333 49° Northeast 156 180 5,100  Level New York TRACON
11:51PM 40.4000 -74.7000 57° Northeast 157 181 5,100  Level New York TRACON
11:52PM 40.4333 -74.6500 49° Northeast 158 182 5,100  Level New York TRACON
11:53PM 40.4500 -74.6000 66° East 158 182 5,100  Level New York TRACON
11:54PM 40.4833 -74.5667 37° Northeast 160 184 5,100  Level New York TRACON
11:55PM 40.5333 -74.5500 14° North 162 186 5,100  Level New York TRACON
11:56PM 40.5667 -74.5333 21° North 159 183 5,100  Level New York TRACON
11:57PM 40.6167 -74.5167 14° North 159 183 5,100 -300 Level New York TRACON
11:58PM 40.6667 -74.5000 14° North 170 196 4,600 -540 Descending New York TRACON
11:59PM 40.7000 -74.4833 21° North 174 200 4,100 -300 Descending New York TRACON
12:00AM 40.7500 -74.4667 14° North 161 185 4,100  Level New York TRACON
12:01AM 40.7833 -74.4333 37° Northeast 153 176 4,100  Level New York TRACON
12:02AM 40.8000 -74.4000 57° Northeast 154 177 4,100  Level New York TRACON
12:03AM 40.8333 -74.3667 37° Northeast 158 182 4,100  Level New York TRACON
12:04AM 40.8500 -74.3167 66° East 155 178 4,100  Level New York TRACON
12:05AM 40.8500 -74.2500 90° East 156 180 4,100 -240 Level New York TRACON
12:06AM 40.8500 -74.2000 90° East 166 191 3,700 -540 Descending New York TRACON
12:07AM 40.8500 -74.1333 90° East 175 201 3,100 -600 Descending New York TRACON
12:08AM 40.8000 -74.1000 153° Southeast 177 204 2,500 -600 Descending New York TRACON
12:09AM 40.7667 -74.1167 201° Southwest 128 147 1,900 -780 Descending New York TRACON
12:10AM 40.7333 -74.1333 201° Southwest 116 133 900 -780 Descending New York TRACON
12:11AM 40.7000 -74.1500 201° Southwest 119 137 300 -600 Descending New York TRACON
12:13AM 40.6833 -74.1667 149° Southeast  Level FlightAware Approximate
12:20AM 40.6925 -74.1687 149° Southeast  Level Estimated